sensor_id;sensor_type;location;lat;lon;timestamp;P1;durP1;ratioP1;P2;durP2;ratioP2
32152;SDS011;18656;50.580;11.392;2024-03-02T00:00:39;29.58;;;15.80;;
32152;SDS011;18656;50.580;11.392;2024-03-02T00:03:07;33.35;;;16.40;;
32152;SDS011;18656;50.580;11.392;2024-03-02T00:05:36;32.65;;;15.23;;
32152;SDS011;18656;50.580;11.392;2024-03-02T00:08:03;27.40;;;14.73;;
32152;SDS011;18656;50.580;11.392;2024-03-02T00:10:36;33.22;;;16.50;;
32152;SDS011;18656;50.580;11.392;2024-03-02T00:13:06;31.40;;;16.25;;
32152;SDS011;18656;50.580;11.392;2024-03-02T00:18:34;31.30;;;16.88;;
32152;SDS011;18656;50.580;11.392;2024-03-02T00:21:02;30.65;;;17.02;;
32152;SDS011;18656;50.580;11.392;2024-03-02T00:23:30;33.65;;;15.93;;
32152;SDS011;18656;50.580;11.392;2024-03-02T00:25:58;33.83;;;17.40;;
32152;SDS011;18656;50.580;11.392;2024-03-02T00:28:30;40.00;;;19.90;;
32152;SDS011;18656;50.580;11.392;2024-03-02T00:31:05;36.88;;;18.58;;
32152;SDS011;18656;50.580;11.392;2024-03-02T00:33:34;38.88;;;19.92;;
32152;SDS011;18656;50.580;11.392;2024-03-02T00:36:03;35.90;;;18.20;;
32152;SDS011;18656;50.580;11.392;2024-03-02T00:38:30;34.65;;;16.58;;
32152;SDS011;18656;50.580;11.392;2024-03-02T00:40:58;43.22;;;19.17;;
32152;SDS011;18656;50.580;11.392;2024-03-02T00:46:02;32.08;;;18.70;;
32152;SDS011;18656;50.580;11.392;2024-03-02T00:48:29;30.15;;;17.45;;
32152;SDS011;18656;50.580;11.392;2024-03-02T00:51:02;36.80;;;19.20;;
32152;SDS011;18656;50.580;11.392;2024-03-02T00:53:31;38.92;;;18.77;;
32152;SDS011;18656;50.580;11.392;2024-03-02T00:56:01;48.42;;;21.20;;
32152;SDS011;18656;50.580;11.392;2024-03-02T00:58:28;49.55;;;21.42;;
32152;SDS011;18656;50.580;11.392;2024-03-02T01:00:55;41.28;;;19.75;;
32152;SDS011;18656;50.580;11.392;2024-03-02T01:03:24;35.15;;;18.58;;
32152;SDS011;18656;50.580;11.392;2024-03-02T01:05:51;31.85;;;18.33;;
32152;SDS011;18656;50.580;11.392;2024-03-02T01:08:18;38.70;;;19.15;;
32152;SDS011;18656;50.580;11.392;2024-03-02T01:10:45;34.30;;;19.08;;
32152;SDS011;18656;50.580;11.392;2024-03-02T01:13:13;34.33;;;18.27;;
32152;SDS011;18656;50.580;11.392;2024-03-02T01:15:40;38.33;;;20.23;;
32152;SDS011;18656;50.580;11.392;2024-03-02T01:18:07;45.42;;;20.58;;
32152;SDS011;18656;50.580;11.392;2024-03-02T01:20:34;40.00;;;20.13;;
32152;SDS011;18656;50.580;11.392;2024-03-02T01:23:02;37.75;;;19.83;;
32152;SDS011;18656;50.580;11.392;2024-03-02T01:25:29;41.17;;;20.45;;
32152;SDS011;18656;50.580;11.392;2024-03-02T01:27:56;41.47;;;21.10;;
32152;SDS011;18656;50.580;11.392;2024-03-02T01:30:24;38.75;;;20.55;;
32152;SDS011;18656;50.580;11.392;2024-03-02T01:32:52;54.25;;;22.98;;
32152;SDS011;18656;50.580;11.392;2024-03-02T01:35:19;44.65;;;20.77;;
32152;SDS011;18656;50.580;11.392;2024-03-02T01:37:46;50.60;;;22.00;;
32152;SDS011;18656;50.580;11.392;2024-03-02T01:40:13;38.67;;;20.13;;
32152;SDS011;18656;50.580;11.392;2024-03-02T01:42:41;34.97;;;20.20;;
32152;SDS011;18656;50.580;11.392;2024-03-02T01:45:08;41.78;;;20.67;;
32152;SDS011;18656;50.580;11.392;2024-03-02T01:47:36;48.50;;;22.65;;
32152;SDS011;18656;50.580;11.392;2024-03-02T01:50:03;41.67;;;21.15;;
32152;SDS011;18656;50.580;11.392;2024-03-02T01:52:30;45.67;;;21.92;;
32152;SDS011;18656;50.580;11.392;2024-03-02T01:54:58;48.78;;;23.02;;
32152;SDS011;18656;50.580;11.392;2024-03-02T01:57:25;53.25;;;24.92;;
32152;SDS011;18656;50.580;11.392;2024-03-02T01:59:52;47.35;;;24.45;;
32152;SDS011;18656;50.580;11.392;2024-03-02T02:02:19;50.20;;;26.05;;
32152;SDS011;18656;50.580;11.392;2024-03-02T02:04:47;56.30;;;27.02;;
32152;SDS011;18656;50.580;11.392;2024-03-02T02:07:14;62.70;;;27.60;;
32152;SDS011;18656;50.580;11.392;2024-03-02T02:09:42;65.07;;;27.33;;
32152;SDS011;18656;50.580;11.392;2024-03-02T02:12:09;59.60;;;26.67;;
32152;SDS011;18656;50.580;11.392;2024-03-02T02:14:37;52.92;;;26.27;;
32152;SDS011;18656;50.580;11.392;2024-03-02T02:17:06;54.45;;;26.70;;
32152;SDS011;18656;50.580;11.392;2024-03-02T02:19:33;57.40;;;26.02;;
32152;SDS011;18656;50.580;11.392;2024-03-02T02:22:00;54.42;;;26.50;;
32152;SDS011;18656;50.580;11.392;2024-03-02T02:24:27;50.38;;;24.98;;
32152;SDS011;18656;50.580;11.392;2024-03-02T02:26:55;61.85;;;27.08;;
32152;SDS011;18656;50.580;11.392;2024-03-02T02:29:22;52.58;;;26.63;;
32152;SDS011;18656;50.580;11.392;2024-03-02T02:31:49;66.38;;;28.80;;
32152;SDS011;18656;50.580;11.392;2024-03-02T02:34:17;57.25;;;25.25;;
32152;SDS011;18656;50.580;11.392;2024-03-02T02:36:44;58.92;;;26.05;;
32152;SDS011;18656;50.580;11.392;2024-03-02T02:39:13;49.80;;;24.67;;
32152;SDS011;18656;50.580;11.392;2024-03-02T02:41:41;47.85;;;24.60;;
32152;SDS011;18656;50.580;11.392;2024-03-02T02:44:08;54.58;;;24.80;;
32152;SDS011;18656;50.580;11.392;2024-03-02T02:46:39;58.75;;;25.55;;
32152;SDS011;18656;50.580;11.392;2024-03-02T02:49:06;56.17;;;24.73;;
32152;SDS011;18656;50.580;11.392;2024-03-02T02:51:33;57.50;;;24.85;;
32152;SDS011;18656;50.580;11.392;2024-03-02T02:54:02;56.45;;;26.50;;
32152;SDS011;18656;50.580;11.392;2024-03-02T02:56:29;50.45;;;25.23;;
32152;SDS011;18656;50.580;11.392;2024-03-02T02:58:56;49.55;;;24.35;;
32152;SDS011;18656;50.580;11.392;2024-03-02T03:01:23;46.65;;;24.13;;
32152;SDS011;18656;50.580;11.392;2024-03-02T03:03:52;53.30;;;25.05;;
32152;SDS011;18656;50.580;11.392;2024-03-02T03:06:19;52.28;;;24.77;;
32152;SDS011;18656;50.580;11.392;2024-03-02T03:08:46;46.38;;;25.02;;
32152;SDS011;18656;50.580;11.392;2024-03-02T03:11:13;48.63;;;25.42;;
32152;SDS011;18656;50.580;11.392;2024-03-02T03:13:41;54.75;;;25.65;;
32152;SDS011;18656;50.580;11.392;2024-03-02T03:16:08;55.35;;;26.02;;
32152;SDS011;18656;50.580;11.392;2024-03-02T03:18:36;48.97;;;23.75;;
32152;SDS011;18656;50.580;11.392;2024-03-02T03:21:04;47.90;;;24.38;;
32152;SDS011;18656;50.580;11.392;2024-03-02T03:23:31;57.65;;;26.10;;
32152;SDS011;18656;50.580;11.392;2024-03-02T03:25:59;54.80;;;26.15;;
32152;SDS011;18656;50.580;11.392;2024-03-02T03:28:26;56.45;;;26.45;;
32152;SDS011;18656;50.580;11.392;2024-03-02T03:30:54;59.20;;;28.05;;
32152;SDS011;18656;50.580;11.392;2024-03-02T03:33:21;54.75;;;24.67;;
32152;SDS011;18656;50.580;11.392;2024-03-02T03:35:48;52.25;;;26.42;;
32152;SDS011;18656;50.580;11.392;2024-03-02T03:38:16;55.80;;;27.55;;
32152;SDS011;18656;50.580;11.392;2024-03-02T03:40:43;58.92;;;27.27;;
32152;SDS011;18656;50.580;11.392;2024-03-02T03:43:11;50.80;;;25.15;;
32152;SDS011;18656;50.580;11.392;2024-03-02T03:45:38;49.83;;;26.27;;
32152;SDS011;18656;50.580;11.392;2024-03-02T03:48:05;50.28;;;25.35;;
32152;SDS011;18656;50.580;11.392;2024-03-02T03:50:33;54.63;;;27.05;;
32152;SDS011;18656;50.580;11.392;2024-03-02T03:53:00;49.22;;;24.55;;
32152;SDS011;18656;50.580;11.392;2024-03-02T03:55:27;56.45;;;26.80;;
32152;SDS011;18656;50.580;11.392;2024-03-02T03:57:54;48.80;;;25.35;;
32152;SDS011;18656;50.580;11.392;2024-03-02T04:00:22;54.72;;;25.45;;
32152;SDS011;18656;50.580;11.392;2024-03-02T04:02:49;57.70;;;26.63;;
32152;SDS011;18656;50.580;11.392;2024-03-02T04:05:16;54.50;;;26.23;;
32152;SDS011;18656;50.580;11.392;2024-03-02T04:07:43;59.95;;;26.05;;
32152;SDS011;18656;50.580;11.392;2024-03-02T04:10:10;51.55;;;26.13;;
32152;SDS011;18656;50.580;11.392;2024-03-02T04:12:38;55.95;;;25.90;;
32152;SDS011;18656;50.580;11.392;2024-03-02T04:15:06;64.93;;;28.25;;
32152;SDS011;18656;50.580;11.392;2024-03-02T04:17:33;70.10;;;28.75;;
32152;SDS011;18656;50.580;11.392;2024-03-02T04:20:02;52.75;;;26.02;;
32152;SDS011;18656;50.580;11.392;2024-03-02T04:22:32;74.65;;;29.92;;
32152;SDS011;18656;50.580;11.392;2024-03-02T04:25:01;66.22;;;27.70;;
32152;SDS011;18656;50.580;11.392;2024-03-02T04:27:28;64.88;;;27.95;;
32152;SDS011;18656;50.580;11.392;2024-03-02T04:29:55;62.40;;;27.95;;
32152;SDS011;18656;50.580;11.392;2024-03-02T04:32:23;65.10;;;27.70;;
32152;SDS011;18656;50.580;11.392;2024-03-02T04:34:50;58.15;;;26.67;;
32152;SDS011;18656;50.580;11.392;2024-03-02T04:37:17;59.95;;;28.35;;
32152;SDS011;18656;50.580;11.392;2024-03-02T04:39:44;59.58;;;27.92;;
32152;SDS011;18656;50.580;11.392;2024-03-02T04:42:11;61.97;;;28.88;;
32152;SDS011;18656;50.580;11.392;2024-03-02T04:44:39;58.85;;;27.52;;
32152;SDS011;18656;50.580;11.392;2024-03-02T04:47:06;52.35;;;26.52;;
32152;SDS011;18656;50.580;11.392;2024-03-02T04:49:33;61.17;;;26.70;;
32152;SDS011;18656;50.580;11.392;2024-03-02T04:52:02;75.05;;;29.63;;
32152;SDS011;18656;50.580;11.392;2024-03-02T04:54:29;68.90;;;29.08;;
32152;SDS011;18656;50.580;11.392;2024-03-02T04:56:56;58.85;;;27.50;;
32152;SDS011;18656;50.580;11.392;2024-03-02T04:59:24;59.08;;;28.25;;
32152;SDS011;18656;50.580;11.392;2024-03-02T05:01:51;55.15;;;26.50;;
32152;SDS011;18656;50.580;11.392;2024-03-02T05:04:19;81.90;;;31.67;;
32152;SDS011;18656;50.580;11.392;2024-03-02T05:06:46;61.45;;;27.38;;
32152;SDS011;18656;50.580;11.392;2024-03-02T05:09:19;70.32;;;29.13;;
32152;SDS011;18656;50.580;11.392;2024-03-02T05:11:46;61.97;;;27.85;;
32152;SDS011;18656;50.580;11.392;2024-03-02T05:14:36;83.40;;;30.65;;
32152;SDS011;18656;50.580;11.392;2024-03-02T05:17:04;60.50;;;28.30;;
32152;SDS011;18656;50.580;11.392;2024-03-02T05:19:32;69.75;;;29.88;;
32152;SDS011;18656;50.580;11.392;2024-03-02T05:21:59;73.97;;;28.85;;
32152;SDS011;18656;50.580;11.392;2024-03-02T05:24:26;85.90;;;31.25;;
32152;SDS011;18656;50.580;11.392;2024-03-02T05:26:54;64.35;;;27.55;;
32152;SDS011;18656;50.580;11.392;2024-03-02T05:29:21;72.45;;;28.52;;
32152;SDS011;18656;50.580;11.392;2024-03-02T05:31:49;74.28;;;29.00;;
32152;SDS011;18656;50.580;11.392;2024-03-02T05:34:16;78.97;;;29.27;;
32152;SDS011;18656;50.580;11.392;2024-03-02T05:36:44;66.68;;;27.88;;
32152;SDS011;18656;50.580;11.392;2024-03-02T05:39:12;91.28;;;32.10;;
32152;SDS011;18656;50.580;11.392;2024-03-02T05:41:40;57.58;;;26.50;;
32152;SDS011;18656;50.580;11.392;2024-03-02T05:44:07;58.38;;;28.02;;
32152;SDS011;18656;50.580;11.392;2024-03-02T05:46:34;88.78;;;32.80;;
32152;SDS011;18656;50.580;11.392;2024-03-02T05:49:03;60.75;;;28.38;;
32152;SDS011;18656;50.580;11.392;2024-03-02T05:51:31;64.43;;;29.10;;
32152;SDS011;18656;50.580;11.392;2024-03-02T05:53:58;91.90;;;33.55;;
32152;SDS011;18656;50.580;11.392;2024-03-02T05:56:25;72.43;;;29.55;;
32152;SDS011;18656;50.580;11.392;2024-03-02T05:58:52;72.47;;;29.35;;
32152;SDS011;18656;50.580;11.392;2024-03-02T06:01:42;65.03;;;29.17;;
32152;SDS011;18656;50.580;11.392;2024-03-02T06:04:10;106.43;;;35.05;;
32152;SDS011;18656;50.580;11.392;2024-03-02T06:06:37;69.05;;;30.27;;
32152;SDS011;18656;50.580;11.392;2024-03-02T06:09:05;102.15;;;35.15;;
32152;SDS011;18656;50.580;11.392;2024-03-02T06:11:38;78.32;;;32.72;;
32152;SDS011;18656;50.580;11.392;2024-03-02T06:14:06;88.43;;;32.22;;
32152;SDS011;18656;50.580;11.392;2024-03-02T06:16:34;68.38;;;31.55;;
32152;SDS011;18656;50.580;11.392;2024-03-02T06:19:01;89.68;;;33.42;;
32152;SDS011;18656;50.580;11.392;2024-03-02T06:21:29;79.50;;;32.05;;
32152;SDS011;18656;50.580;11.392;2024-03-02T06:23:56;108.80;;;35.78;;
32152;SDS011;18656;50.580;11.392;2024-03-02T06:26:23;88.15;;;33.65;;
32152;SDS011;18656;50.580;11.392;2024-03-02T06:28:51;86.10;;;33.83;;
32152;SDS011;18656;50.580;11.392;2024-03-02T06:31:19;102.55;;;37.20;;
32152;SDS011;18656;50.580;11.392;2024-03-02T06:33:46;77.63;;;31.65;;
32152;SDS011;18656;50.580;11.392;2024-03-02T06:36:13;114.85;;;37.50;;
32152;SDS011;18656;50.580;11.392;2024-03-02T06:38:42;108.43;;;36.63;;
32152;SDS011;18656;50.580;11.392;2024-03-02T06:41:09;83.80;;;33.45;;
32152;SDS011;18656;50.580;11.392;2024-03-02T06:43:37;75.45;;;33.60;;
32152;SDS011;18656;50.580;11.392;2024-03-02T06:46:05;113.25;;;46.17;;
32152;SDS011;18656;50.580;11.392;2024-03-02T06:48:35;104.22;;;44.78;;
32152;SDS011;18656;50.580;11.392;2024-03-02T06:51:03;100.38;;;44.15;;
32152;SDS011;18656;50.580;11.392;2024-03-02T06:53:30;114.55;;;49.92;;
32152;SDS011;18656;50.580;11.392;2024-03-02T06:55:59;161.52;;;59.42;;
32152;SDS011;18656;50.580;11.392;2024-03-02T06:58:27;135.93;;;54.33;;
32152;SDS011;18656;50.580;11.392;2024-03-02T07:00:54;108.90;;;43.78;;
32152;SDS011;18656;50.580;11.392;2024-03-02T07:03:21;157.82;;;53.08;;
32152;SDS011;18656;50.580;11.392;2024-03-02T07:05:49;106.85;;;42.40;;
32152;SDS011;18656;50.580;11.392;2024-03-02T07:08:16;100.63;;;37.50;;
32152;SDS011;18656;50.580;11.392;2024-03-02T07:10:43;97.45;;;38.20;;
32152;SDS011;18656;50.580;11.392;2024-03-02T07:13:10;87.03;;;35.83;;
32152;SDS011;18656;50.580;11.392;2024-03-02T07:15:39;84.03;;;34.83;;
32152;SDS011;18656;50.580;11.392;2024-03-02T07:18:24;79.75;;;35.05;;
32152;SDS011;18656;50.580;11.392;2024-03-02T07:20:52;72.57;;;33.03;;
32152;SDS011;18656;50.580;11.392;2024-03-02T07:23:19;65.43;;;30.75;;
32152;SDS011;18656;50.580;11.392;2024-03-02T07:25:49;62.63;;;29.00;;
32152;SDS011;18656;50.580;11.392;2024-03-02T07:28:19;47.17;;;25.85;;
32152;SDS011;18656;50.580;11.392;2024-03-02T07:30:46;55.88;;;29.63;;
32152;SDS011;18656;50.580;11.392;2024-03-02T07:33:15;43.25;;;23.65;;
32152;SDS011;18656;50.580;11.392;2024-03-02T07:35:43;53.63;;;25.42;;
32152;SDS011;18656;50.580;11.392;2024-03-02T07:38:10;43.80;;;23.52;;
32152;SDS011;18656;50.580;11.392;2024-03-02T07:40:38;50.47;;;26.67;;
32152;SDS011;18656;50.580;11.392;2024-03-02T07:43:06;47.05;;;24.98;;
32152;SDS011;18656;50.580;11.392;2024-03-02T07:45:33;49.50;;;25.67;;
32152;SDS011;18656;50.580;11.392;2024-03-02T07:48:02;48.30;;;25.30;;
32152;SDS011;18656;50.580;11.392;2024-03-02T07:50:30;44.35;;;23.75;;
32152;SDS011;18656;50.580;11.392;2024-03-02T07:52:57;45.05;;;23.95;;
32152;SDS011;18656;50.580;11.392;2024-03-02T07:55:24;42.45;;;23.20;;
32152;SDS011;18656;50.580;11.392;2024-03-02T07:57:51;41.78;;;22.25;;
32152;SDS011;18656;50.580;11.392;2024-03-02T08:00:19;41.45;;;22.52;;
32152;SDS011;18656;50.580;11.392;2024-03-02T08:02:46;36.70;;;21.60;;
32152;SDS011;18656;50.580;11.392;2024-03-02T08:05:13;38.80;;;21.52;;
32152;SDS011;18656;50.580;11.392;2024-03-02T08:07:41;42.75;;;22.02;;
32152;SDS011;18656;50.580;11.392;2024-03-02T08:10:08;36.72;;;21.20;;
32152;SDS011;18656;50.580;11.392;2024-03-02T08:12:35;38.42;;;19.90;;
32152;SDS011;18656;50.580;11.392;2024-03-02T08:15:03;37.72;;;22.00;;
32152;SDS011;18656;50.580;11.392;2024-03-02T08:17:30;33.05;;;19.38;;
32152;SDS011;18656;50.580;11.392;2024-03-02T08:20:00;39.47;;;21.55;;
32152;SDS011;18656;50.580;11.392;2024-03-02T08:22:28;28.88;;;18.80;;
32152;SDS011;18656;50.580;11.392;2024-03-02T08:24:55;29.75;;;16.40;;
32152;SDS011;18656;50.580;11.392;2024-03-02T08:27:22;24.35;;;15.10;;
32152;SDS011;18656;50.580;11.392;2024-03-02T08:29:50;24.02;;;16.30;;
32152;SDS011;18656;50.580;11.392;2024-03-02T08:32:17;23.60;;;15.30;;
32152;SDS011;18656;50.580;11.392;2024-03-02T08:34:44;22.25;;;14.43;;
32152;SDS011;18656;50.580;11.392;2024-03-02T08:37:11;21.98;;;14.88;;
32152;SDS011;18656;50.580;11.392;2024-03-02T08:39:38;21.73;;;13.65;;
32152;SDS011;18656;50.580;11.392;2024-03-02T08:42:06;19.08;;;13.38;;
32152;SDS011;18656;50.580;11.392;2024-03-02T08:44:33;25.60;;;13.18;;
32152;SDS011;18656;50.580;11.392;2024-03-02T08:47:00;17.13;;;12.07;;
32152;SDS011;18656;50.580;11.392;2024-03-02T08:49:28;19.80;;;12.35;;
32152;SDS011;18656;50.580;11.392;2024-03-02T08:51:55;17.60;;;12.52;;
32152;SDS011;18656;50.580;11.392;2024-03-02T08:54:22;17.55;;;12.43;;
32152;SDS011;18656;50.580;11.392;2024-03-02T08:56:50;17.65;;;12.05;;
32152;SDS011;18656;50.580;11.392;2024-03-02T08:59:17;17.20;;;11.77;;
32152;SDS011;18656;50.580;11.392;2024-03-02T09:01:44;16.30;;;11.38;;
32152;SDS011;18656;50.580;11.392;2024-03-02T09:04:11;17.00;;;11.13;;
32152;SDS011;18656;50.580;11.392;2024-03-02T09:06:38;17.33;;;11.40;;
32152;SDS011;18656;50.580;11.392;2024-03-02T09:09:06;20.25;;;12.40;;
32152;SDS011;18656;50.580;11.392;2024-03-02T09:11:33;16.67;;;10.98;;
32152;SDS011;18656;50.580;11.392;2024-03-02T09:14:00;18.20;;;11.60;;
32152;SDS011;18656;50.580;11.392;2024-03-02T09:16:28;15.68;;;10.70;;
32152;SDS011;18656;50.580;11.392;2024-03-02T09:18:57;16.35;;;11.18;;
32152;SDS011;18656;50.580;11.392;2024-03-02T09:21:24;16.30;;;10.77;;
32152;SDS011;18656;50.580;11.392;2024-03-02T09:23:52;14.15;;;9.93;;
32152;SDS011;18656;50.580;11.392;2024-03-02T09:26:19;15.25;;;10.48;;
32152;SDS011;18656;50.580;11.392;2024-03-02T09:28:47;14.40;;;10.07;;
32152;SDS011;18656;50.580;11.392;2024-03-02T09:31:14;13.73;;;9.23;;
32152;SDS011;18656;50.580;11.392;2024-03-02T09:33:41;12.50;;;8.60;;
32152;SDS011;18656;50.580;11.392;2024-03-02T09:36:18;0.15;;;0.15;;
32152;SDS011;18656;50.580;11.392;2024-03-02T09:38:46;0.50;;;0.50;;
32152;SDS011;18656;50.580;11.392;2024-03-02T09:41:13;0.22;;;0.10;;
32152;SDS011;18656;50.580;11.392;2024-03-02T09:43:41;0.00;;;0.00;;
32152;SDS011;18656;50.580;11.392;2024-03-02T09:46:08;0.75;;;0.75;;
32152;SDS011;18656;50.580;11.392;2024-03-02T09:48:36;0.55;;;0.55;;
32152;SDS011;18656;50.580;11.392;2024-03-02T09:51:04;1.42;;;1.30;;
32152;SDS011;18656;50.580;11.392;2024-03-02T09:53:32;4.35;;;1.73;;
32152;SDS011;18656;50.580;11.392;2024-03-02T09:56:00;12.27;;;3.92;;
32152;SDS011;18656;50.580;11.392;2024-03-02T09:58:27;13.43;;;8.82;;
32152;SDS011;18656;50.580;11.392;2024-03-02T10:00:55;10.23;;;8.52;;
32152;SDS011;18656;50.580;11.392;2024-03-02T10:03:22;10.23;;;8.00;;
32152;SDS011;18656;50.580;11.392;2024-03-02T10:05:53;10.70;;;8.50;;
32152;SDS011;18656;50.580;11.392;2024-03-02T10:08:20;10.57;;;8.82;;
32152;SDS011;18656;50.580;11.392;2024-03-02T10:10:47;10.98;;;9.40;;
32152;SDS011;18656;50.580;11.392;2024-03-02T10:13:15;9.60;;;7.70;;
32152;SDS011;18656;50.580;11.392;2024-03-02T10:15:44;10.60;;;8.05;;
32152;SDS011;18656;50.580;11.392;2024-03-02T10:18:13;8.13;;;7.07;;
32152;SDS011;18656;50.580;11.392;2024-03-02T10:20:41;10.63;;;7.80;;
32152;SDS011;18656;50.580;11.392;2024-03-02T10:23:09;10.93;;;8.07;;
32152;SDS011;18656;50.580;11.392;2024-03-02T10:25:36;8.70;;;7.30;;
32152;SDS011;18656;50.580;11.392;2024-03-02T10:28:16;11.45;;;7.30;;
32152;SDS011;18656;50.580;11.392;2024-03-02T10:30:44;21.73;;;15.60;;
32152;SDS011;18656;50.580;11.392;2024-03-02T10:33:15;11.73;;;8.75;;
32152;SDS011;18656;50.580;11.392;2024-03-02T10:35:44;11.23;;;7.97;;
32152;SDS011;18656;50.580;11.392;2024-03-02T10:38:11;12.52;;;8.63;;
32152;SDS011;18656;50.580;11.392;2024-03-02T10:40:38;8.43;;;7.40;;
32152;SDS011;18656;50.580;11.392;2024-03-02T10:43:06;11.90;;;7.15;;
32152;SDS011;18656;50.580;11.392;2024-03-02T10:45:34;9.65;;;7.22;;
32152;SDS011;18656;50.580;11.392;2024-03-02T10:48:02;10.13;;;7.70;;
32152;SDS011;18656;50.580;11.392;2024-03-02T10:50:31;11.48;;;7.18;;
32152;SDS011;18656;50.580;11.392;2024-03-02T10:52:58;9.68;;;6.95;;
32152;SDS011;18656;50.580;11.392;2024-03-02T10:55:26;9.18;;;6.82;;
32152;SDS011;18656;50.580;11.392;2024-03-02T10:57:54;11.10;;;8.68;;
32152;SDS011;18656;50.580;11.392;2024-03-02T11:00:26;9.90;;;7.07;;
32152;SDS011;18656;50.580;11.392;2024-03-02T11:03:05;8.52;;;6.82;;
32152;SDS011;18656;50.580;11.392;2024-03-02T11:05:33;9.82;;;6.90;;
32152;SDS011;18656;50.580;11.392;2024-03-02T11:08:06;7.35;;;5.95;;
32152;SDS011;18656;50.580;11.392;2024-03-02T11:10:34;6.82;;;6.10;;
32152;SDS011;18656;50.580;11.392;2024-03-02T11:13:06;7.32;;;6.25;;
32152;SDS011;18656;50.580;11.392;2024-03-02T11:15:36;7.47;;;5.95;;
32152;SDS011;18656;50.580;11.392;2024-03-02T11:18:04;8.57;;;5.72;;
32152;SDS011;18656;50.580;11.392;2024-03-02T11:20:38;7.35;;;6.10;;
32152;SDS011;18656;50.580;11.392;2024-03-02T11:23:06;7.38;;;5.82;;
32152;SDS011;18656;50.580;11.392;2024-03-02T11:25:34;5.35;;;4.75;;
32152;SDS011;18656;50.580;11.392;2024-03-02T11:28:02;5.90;;;5.30;;
32152;SDS011;18656;50.580;11.392;2024-03-02T11:33:02;6.13;;;5.53;;
32152;SDS011;18656;50.580;11.392;2024-03-02T11:35:41;6.18;;;5.55;;
32152;SDS011;18656;50.580;11.392;2024-03-02T11:38:09;7.22;;;5.60;;
32152;SDS011;18656;50.580;11.392;2024-03-02T11:40:38;12.65;;;10.18;;
32152;SDS011;18656;50.580;11.392;2024-03-02T11:43:06;6.70;;;5.40;;
32152;SDS011;18656;50.580;11.392;2024-03-02T11:45:35;6.47;;;5.70;;
32152;SDS011;18656;50.580;11.392;2024-03-02T11:48:06;7.38;;;5.75;;
32152;SDS011;18656;50.580;11.392;2024-03-02T11:50:34;7.05;;;5.30;;
32152;SDS011;18656;50.580;11.392;2024-03-02T11:53:03;6.28;;;5.68;;
32152;SDS011;18656;50.580;11.392;2024-03-02T11:55:33;5.70;;;5.10;;
32152;SDS011;18656;50.580;11.392;2024-03-02T11:58:03;7.05;;;5.90;;
32152;SDS011;18656;50.580;11.392;2024-03-02T12:00:30;6.15;;;5.55;;
32152;SDS011;18656;50.580;11.392;2024-03-02T12:05:31;6.95;;;4.70;;
32152;SDS011;18656;50.580;11.392;2024-03-02T12:07:59;7.78;;;5.00;;
32152;SDS011;18656;50.580;11.392;2024-03-02T12:10:27;6.63;;;5.45;;
32152;SDS011;18656;50.580;11.392;2024-03-02T12:12:57;4.90;;;4.50;;
32152;SDS011;18656;50.580;11.392;2024-03-02T12:15:25;4.97;;;4.53;;
32152;SDS011;18656;50.580;11.392;2024-03-02T12:17:57;4.00;;;3.70;;
32152;SDS011;18656;50.580;11.392;2024-03-02T12:20:27;4.63;;;4.15;;
32152;SDS011;18656;50.580;11.392;2024-03-02T12:22:56;3.88;;;3.58;;
32152;SDS011;18656;50.580;11.392;2024-03-02T12:25:24;3.60;;;3.30;;
32152;SDS011;18656;50.580;11.392;2024-03-02T12:27:56;3.53;;;3.25;;
32152;SDS011;18656;50.580;11.392;2024-03-02T12:30:23;3.83;;;3.30;;
32152;SDS011;18656;50.580;11.392;2024-03-02T12:32:51;3.90;;;3.25;;
32152;SDS011;18656;50.580;11.392;2024-03-02T12:35:18;3.22;;;3.03;;
32152;SDS011;18656;50.580;11.392;2024-03-02T12:37:46;4.07;;;3.58;;
32152;SDS011;18656;50.580;11.392;2024-03-02T12:40:14;4.00;;;3.30;;
32152;SDS011;18656;50.580;11.392;2024-03-02T12:42:44;3.70;;;3.40;;
32152;SDS011;18656;50.580;11.392;2024-03-02T12:45:12;3.33;;;3.13;;
32152;SDS011;18656;50.580;11.392;2024-03-02T12:47:39;3.53;;;3.20;;
32152;SDS011;18656;50.580;11.392;2024-03-02T12:50:07;3.67;;;2.88;;
32152;SDS011;18656;50.580;11.392;2024-03-02T12:52:35;2.95;;;2.75;;
32152;SDS011;18656;50.580;11.392;2024-03-02T12:55:05;3.55;;;3.25;;
32152;SDS011;18656;50.580;11.392;2024-03-02T12:57:33;3.00;;;2.80;;
32152;SDS011;18656;50.580;11.392;2024-03-02T13:00:04;2.80;;;2.60;;
32152;SDS011;18656;50.580;11.392;2024-03-02T13:02:35;2.97;;;2.78;;
32152;SDS011;18656;50.580;11.392;2024-03-02T13:05:03;2.20;;;2.10;;
32152;SDS011;18656;50.580;11.392;2024-03-02T13:07:30;2.45;;;2.25;;
32152;SDS011;18656;50.580;11.392;2024-03-02T13:09:58;2.90;;;2.60;;
32152;SDS011;18656;50.580;11.392;2024-03-02T13:12:25;3.00;;;2.80;;
32152;SDS011;18656;50.580;11.392;2024-03-02T13:14:52;4.32;;;2.75;;
32152;SDS011;18656;50.580;11.392;2024-03-02T13:17:20;3.55;;;2.72;;
32152;SDS011;18656;50.580;11.392;2024-03-02T13:19:51;2.75;;;2.55;;
32152;SDS011;18656;50.580;11.392;2024-03-02T13:22:19;2.53;;;2.42;;
32152;SDS011;18656;50.580;11.392;2024-03-02T13:24:48;2.67;;;2.47;;
32152;SDS011;18656;50.580;11.392;2024-03-02T13:27:15;2.40;;;2.05;;
32152;SDS011;18656;50.580;11.392;2024-03-02T13:29:42;2.58;;;2.38;;
32152;SDS011;18656;50.580;11.392;2024-03-02T13:32:09;2.20;;;2.10;;
32152;SDS011;18656;50.580;11.392;2024-03-02T13:34:37;2.03;;;1.92;;
32152;SDS011;18656;50.580;11.392;2024-03-02T13:37:04;2.55;;;2.03;;
32152;SDS011;18656;50.580;11.392;2024-03-02T13:39:32;2.80;;;2.60;;
32152;SDS011;18656;50.580;11.392;2024-03-02T13:42:01;2.40;;;2.30;;
32152;SDS011;18656;50.580;11.392;2024-03-02T13:44:33;2.22;;;2.03;;
32152;SDS011;18656;50.580;11.392;2024-03-02T13:47:00;2.13;;;2.00;;
32152;SDS011;18656;50.580;11.392;2024-03-02T13:49:28;4.45;;;2.45;;
32152;SDS011;18656;50.580;11.392;2024-03-02T13:54:30;2.85;;;2.55;;
32152;SDS011;18656;50.580;11.392;2024-03-02T13:56:58;2.70;;;2.50;;
32152;SDS011;18656;50.580;11.392;2024-03-02T13:59:25;2.88;;;2.50;;
32152;SDS011;18656;50.580;11.392;2024-03-02T14:01:53;2.72;;;2.40;;
32152;SDS011;18656;50.580;11.392;2024-03-02T14:04:20;6.55;;;2.40;;
32152;SDS011;18656;50.580;11.392;2024-03-02T14:06:48;2.22;;;2.13;;
32152;SDS011;18656;50.580;11.392;2024-03-02T14:09:15;2.83;;;2.20;;
32152;SDS011;18656;50.580;11.392;2024-03-02T14:11:42;2.20;;;2.10;;
32152;SDS011;18656;50.580;11.392;2024-03-02T14:14:10;2.10;;;1.95;;
32152;SDS011;18656;50.580;11.392;2024-03-02T14:16:37;3.08;;;2.30;;
32152;SDS011;18656;50.580;11.392;2024-03-02T14:19:04;2.13;;;2.03;;
32152;SDS011;18656;50.580;11.392;2024-03-02T14:21:32;2.63;;;2.10;;
32152;SDS011;18656;50.580;11.392;2024-03-02T14:24:02;2.00;;;1.90;;
32152;SDS011;18656;50.580;11.392;2024-03-02T14:26:29;2.95;;;2.30;;
32152;SDS011;18656;50.580;11.392;2024-03-02T14:28:56;2.90;;;2.60;;
32152;SDS011;18656;50.580;11.392;2024-03-02T14:31:24;3.08;;;2.20;;
32152;SDS011;18656;50.580;11.392;2024-03-02T14:33:51;2.75;;;2.55;;